• Join FlightAware (Why Join?)
  • Login
  • US Flag 
09:05AM EST


 

Airport Tracker/Info


-or-


 

Live Flight TrackerFlight Track Log ✈ SWA1301 ✈ 30-Jun-2013 ✈ KHOU - KBBG

Flight Track Log - Related Links

Times and Time Zones

All times are in EDT time to prevent confusion due to time zone crossing. See the SWA1301 flight status page for this flight to view local times or setup timezone preferences in your user account.

Time Position Orientation Groundspeed Altitude Reporting Facility
EDT Latitude Longitude Course Direction KTS MPH feet Rate Location/Type
10:09AM 29.6331 -95.2631 44° Northeast 167 192 700  Level Houston Center
10:10AM 29.6578 -95.2358 44° Northeast 224 258 2,400 2,040 Climbing Houston Center
10:11AM 29.6961 -95.2442 349° North 232 267 3,900 2,940 Climbing Houston Center
10:12AM 29.7678 -95.2544 353° North 254 292 7,500 3,240 Climbing Houston Center
10:13AM 29.8358 -95.2600 356° North 248 285 10,600 2,340 Climbing Houston Center
10:14AM 29.9178 -95.2533 North 289 333 12,300 1,860 Climbing Houston Center
10:15AM 30.0267 -95.2478 North 329 379 14,500 2,340 Climbing Houston Center
10:16AM 30.1231 -95.2419 North 345 397 17,100 2,040 Climbing Houston Center
10:17AM 30.2239 -95.2356 North 359 413 18,800 1,740 Climbing Houston Center
10:18AM 30.3261 -95.2083 13° North 384 442 20,700 1,680 Climbing Houston Center
10:19AM 30.4419 -95.1639 18° North 393 452 22,300 1,500 Climbing Houston Center
10:20AM 30.5428 -95.1044 27° Northeast 406 467 23,800 1,380 Climbing Houston Center
10:21AM 30.6453 -95.0403 28° Northeast 416 479 25,200 1,260 Climbing Houston Center
10:22AM 30.7506 -94.9758 28° Northeast 424 488 26,500 1,800 Climbing Houston Center
10:23AM 30.8539 -94.9106 28° Northeast 423 487 28,900 1,980 Climbing Houston Center
10:24AM 30.9533 -94.8483 28° Northeast 412 474 30,600 1,260 Climbing Houston Center
10:25AM 31.0514 -94.7864 28° Northeast 402 463 31,600 1,020 Climbing Houston Center
10:26AM 31.1525 -94.7250 27° Northeast 419 482 32,800 1,140 Climbing Houston Center
10:27AM 31.2619 -94.6878 16° North 414 476 34,000 1,080 Climbing Houston Center
10:28AM 31.3797 -94.6550 13° North 395 455 35,100 1,020 Climbing Houston Center
10:29AM 31.4850 -94.6267 13° North 390 449 36,200 900 Climbing Houston Center
10:30AM 31.5894 -94.5969 14° North 388 447 37,000 360 Climbing Houston Center
10:31AM 31.6903 -94.5686 13° North 377 434 37,000  Level Houston Center
10:32AM 31.8106 -94.5353 13° North 370 426 37,000  Level Houston Center
10:33AM 31.8775 -94.5192 12° North 375 432 37,000  Level Fort Worth Center
10:34AM 31.9769 -94.4892 14° North 375 432 37,000  Level Fort Worth Center
10:35AM 32.0764 -94.4592 14° North 375 432 37,000  Level Fort Worth Center
10:36AM 32.1719 -94.4314 14° North 370 426 37,000  Level Fort Worth Center
10:37AM 32.2692 -94.3986 16° North 357 411 37,000  Level Fort Worth Center
10:38AM 32.3686 -94.3708 13° North 357 411 37,000  Level Fort Worth Center
10:39AM 32.4683 -94.3428 13° North 357 411 37,000  Level Fort Worth Center
10:40AM 32.5678 -94.3150 13° North 357 411 37,000  Level Fort Worth Center
10:41AM 32.6672 -94.2867 13° North 357 411 37,000  Level Fort Worth Center
10:42AM 32.7647 -94.2586 14° North 357 411 37,000  Level Fort Worth Center
10:43AM 32.8619 -94.2281 15° North 357 411 37,000  Level Fort Worth Center
10:44AM 32.9594 -94.1997 14° North 357 411 37,000  Level Fort Worth Center
10:45AM 33.0589 -94.1714 13° North 357 411 37,000  Level Fort Worth Center
10:46AM 33.1583 -94.1456 12° North 357 411 37,000  Level Fort Worth Center
10:47AM 33.2536 -94.1197 13° North 352 405 37,000  Level Fort Worth Center
10:48AM 33.3428 -94.0964 12° North 357 411 37,000  Level Fort Worth Center
10:49AM 33.4486 -94.0675 13° North 367 422 37,000  Level Fort Worth Center
10:50AM 33.5456 -94.0339 16° North 367 422 37,000  Level Fort Worth Center
10:51AM 33.6431 -94.0028 15° North 367 422 37,000  Level Fort Worth Center
10:52AM 33.7403 -93.9739 14° North 367 422 37,000  Level Fort Worth Center
10:53AM 33.8394 -93.9425 15° North 362 417 37,000  Level Fort Worth Center
10:54AM 33.9347 -93.9139 14° North 357 411 37,000  Level Fort Worth Center
10:56AM 34.1511 -93.8508 14° North 353 406 37,000  Level Memphis Center
10:57AM 34.2500 -93.8197 15° North 353 406 37,000  Level Memphis Center
10:58AM 34.3533 -93.7836 16° North 358 412 37,000  Level Memphis Center
10:59AM 34.4497 -93.7597 12° North 358 412 37,000 -180 Level Memphis Center
11:00AM 34.5447 -93.7283 15° North 352 405 36,700 -660 Descending Memphis Center
11:01AM 34.6414 -93.6992 14° North 352 405 35,700 -1,020 Descending Memphis Center
11:02AM 34.7381 -93.6703 14° North 352 405 34,700 -960 Descending Memphis Center
11:03AM 34.8328 -93.6386 15° North 352 405 33,800 -900 Descending Memphis Center
11:04AM 34.9317 -93.6094 14° North 357 411 32,900 -960 Descending Memphis Center
11:05AM 35.0303 -93.5828 12° North 357 411 31,900 -1,500 Descending Memphis Center
11:06AM 35.1231 -93.5533 15° North 357 411 30,000 -2,040 Descending Memphis Center
11:07AM 35.2133 -93.5264 14° North 351 404 27,900 -2,100 Descending Memphis Center
11:08AM 35.3058 -93.4942 16° North 341 392 25,800 -2,160 Descending Memphis Center
11:09AM 35.3964 -93.4644 15° North 336 387 23,600 -1,920 Descending Memphis Center
11:10AM 35.4761 -93.4419 13° North 336 387 22,000 -1,920 Descending Memphis Center
11:11AM 35.5606 -93.3992 22° Northeast 331 381 19,800 -2,160 Descending Memphis Center
11:12AM 35.6411 -93.3511 26° Northeast 320 368 17,700 -2,100 Descending Memphis Center
11:13AM 35.7192 -93.3078 24° Northeast 315 362 15,700 -2,040 Descending Memphis Center
11:14AM 35.7975 -93.2669 23° Northeast 309 356 13,700 -1,980 Descending Memphis Center
11:15AM 35.8753 -93.2289 22° Northeast 302 348 11,800 -1,800 Descending Memphis Center
11:16AM 35.9514 -93.1853 25° Northeast 302 348 10,100 -1,440 Descending Memphis Center
11:17AM 36.0211 -93.1492 23° Northeast 291 335 9,000 -1,200 Descending Memphis Center
11:18AM 36.0864 -93.1156 23° Northeast 271 312 7,700 -1,200 Descending Memphis Center
11:19AM 36.1539 -93.0792 24° Northeast 259 298 6,700 -900 Descending Memphis Center
11:20AM 36.2172 -93.0453 23° Northeast 253 291 6,000 -360 Descending Memphis Center
11:22AM 36.3489 -93.0431 North 248 285 5,700 -360 Descending Kansas City Center
11:23AM 36.3967 -93.0842 325° Northwest 239 275 4,900 -780 Descending Kansas City Center
11:25AM 36.4830 -93.1539 329° Northwest  Level FlightAware Approximate
11:32AM 36.5167 -93.2000 302° West  Level FlightAware Approximate
11:33AM 36.5321 -93.2005 302° West  Level Estimated
11:34AM 36.5321 -93.2005 302° West  Level Estimated
11:35AM 36.5321 -93.2005 302° West  Level Estimated
11:36AM 36.5321 -93.2005 302° West  Level Estimated